Time;durP1;ratioP1;P1;durP2;ratioP2;P2;SDS_P1;SDS_P2;PMS_P1;PMS_P2;Temp;Humidity;BMP_temperature;BMP_pressure;BME280_temperature;BME280_humidity;BME280_pressure;Samples;Min_cycle;Max_cycle;Signal;HPM_P1;HPM_P2
2023/03/12 00:00:42;;;;;;;1.02;0.60;;;18.30;50.40;;;;;;6294969;28;20024;-72
2023/03/12 00:03:43;;;;;;;1.33;0.70;;;18.20;50.30;;;;;;6277219;28;20532;-71
2023/03/12 00:06:43;;;;;;;0.85;0.50;;;18.30;50.30;;;;;;6276693;28;20025;-71
2023/03/12 00:09:44;;;;;;;0.80;0.50;;;18.20;50.20;;;;;;6294932;28;20016;-71
2023/03/12 00:12:45;;;;;;;0.45;0.43;;;18.20;50.40;;;;;;6276758;28;20028;-71
2023/03/12 00:15:46;;;;;;;0.63;0.50;;;18.30;50.40;;;;;;6294476;28;20035;-71
2023/03/12 00:18:48;;;;;;;0.90;0.70;;;18.20;50.40;;;;;;6276939;28;20017;-71
2023/03/12 00:21:49;;;;;;;1.88;0.70;;;18.30;50.50;;;;;;6275998;28;20054;-71
2023/03/12 00:24:54;;;;;;;1.15;0.55;;;18.30;50.40;;;;;;6293722;28;20045;-71
2023/03/12 00:27:55;;;;;;;;;;;18.30;50.40;;;;;;6294131;28;20125;-71
2023/03/12 00:30:57;;;;;;;0.50;0.47;;;18.30;50.40;;;;;;6278067;28;20268;-72
2023/03/12 00:33:59;;;;;;;1.27;0.70;;;18.20;50.40;;;;;;6274028;28;20030;-72
2023/03/12 00:37:00;;;;;;;1.00;0.60;;;18.20;50.40;;;;;;6251905;28;20090;-71
2023/03/12 00:40:04;;;;;;;1.33;0.50;;;18.20;50.40;;;;;;6251688;28;20764;-72
2023/03/12 00:43:05;;;;;;;0.90;0.50;;;18.20;50.30;;;;;;6251498;28;20101;-71
2023/03/12 00:46:05;;;;;;;0.93;0.63;;;18.30;50.30;;;;;;6269048;28;20029;-71
2023/03/12 00:49:06;;;;;;;0.50;0.47;;;18.30;50.40;;;;;;6268928;28;20378;-72
2023/03/12 00:52:07;;;;;;;0.47;0.40;;;18.20;50.30;;;;;;6271901;28;20074;-71
2023/03/12 00:55:08;;;;;;;2.05;0.70;;;18.30;50.40;;;;;;6275733;28;20036;-71
2023/03/12 00:58:08;;;;;;;1.98;0.60;;;18.20;50.40;;;;;;6293793;28;20381;-71
2023/03/12 01:01:10;;;;;;;0.80;0.50;;;18.20;50.40;;;;;;6293853;28;20055;-71
2023/03/12 01:04:11;;;;;;;0.68;0.40;;;18.20;50.20;;;;;;6293672;28;20154;-71
2023/03/12 01:07:11;;;;;;;0.88;0.50;;;18.20;50.30;;;;;;6275592;28;20370;-71
2023/03/12 01:10:16;;;;;;;0.40;0.40;;;18.20;50.30;;;;;;6275390;28;20051;-71
2023/03/12 01:13:16;;;;;;;1.85;0.77;;;18.20;50.20;;;;;;6293871;28;20048;-71
2023/03/12 01:16:17;;;;;;;1.40;0.63;;;18.20;50.40;;;;;;6287880;28;20034;-71
2023/03/12 01:19:18;;;;;;;0.80;0.50;;;18.20;50.40;;;;;;6293624;28;20028;-71
2023/03/12 01:22:18;;;;;;;0.82;0.50;;;18.20;50.40;;;;;;6275089;28;20041;-71
2023/03/12 01:25:19;;;;;;;1.02;0.52;;;18.20;50.40;;;;;;6289242;28;20025;-71
2023/03/12 01:28:21;;;;;;;0.93;0.60;;;18.20;50.20;;;;;;6268484;28;20520;-71
2023/03/12 01:31:22;;;;;;;1.42;0.50;;;18.20;50.40;;;;;;6250465;28;20025;-71
2023/03/12 01:34:23;;;;;;;0.85;0.50;;;18.20;50.30;;;;;;6242783;28;20026;-72
2023/03/12 01:37:23;;;;;;;0.55;0.45;;;18.20;50.30;;;;;;6225838;28;20037;-71
2023/03/12 01:40:26;;;;;;;0.75;0.50;;;18.20;50.40;;;;;;6225651;28;20052;-71
2023/03/12 01:43:30;;;;;;;0.80;0.52;;;18.20;50.30;;;;;;6226340;28;20149;-71
2023/03/12 01:46:37;;;;;;;0.50;0.40;;;18.20;50.30;;;;;;6225435;28;20037;-71
2023/03/12 01:49:38;;;;;;;0.47;0.30;;;18.20;50.40;;;;;;6225777;28;20111;-71
2023/03/12 01:52:39;;;;;;;0.50;0.50;;;18.20;50.30;;;;;;6262759;28;20025;-71
2023/03/12 01:55:40;;;;;;;0.65;0.55;;;18.20;50.30;;;;;;6252203;28;20029;-71
2023/03/12 01:58:46;;;;;;;1.02;0.43;;;18.20;50.20;;;;;;6274840;28;20024;-71
2023/03/12 02:01:48;;;;;;;0.65;0.57;;;18.20;50.20;;;;;;6281819;28;20100;-71
2023/03/12 02:04:51;;;;;;;0.93;0.60;;;18.20;50.20;;;;;;6250297;28;20035;-71
2023/03/12 02:07:51;;;;;;;0.90;0.40;;;18.20;50.10;;;;;;6249872;28;20021;-71
2023/03/12 02:10:52;;;;;;;0.43;0.40;;;18.20;50.20;;;;;;6251815;28;20024;-71
2023/03/12 02:13:53;;;;;;;2.83;0.70;;;18.20;50.20;;;;;;6293035;28;20020;-71
2023/03/12 02:16:54;;;;;;;0.70;0.40;;;18.20;50.20;;;;;;6274565;28;20035;-71
2023/03/12 02:20:17;;;;;;;0.85;0.47;;;18.20;50.30;;;;;;6274562;28;20032;-71
2023/03/12 02:23:30;;;;;;;0.50;0.50;;;18.20;50.20;;;;;;6292767;28;20021;-71
2023/03/12 02:26:32;;;;;;;0.90;0.40;;;18.20;50.20;;;;;;6292346;28;20048;-71
2023/03/12 02:29:36;;;;;;;1.40;0.50;;;18.20;50.20;;;;;;6292317;28;20362;-71
2023/03/12 02:32:38;;;;;;;0.50;0.40;;;18.20;50.20;;;;;;6274604;28;20034;-71
2023/03/12 02:35:39;;;;;;;0.55;0.40;;;18.20;50.30;;;;;;6247654;28;20032;-71
2023/03/12 02:38:46;;;;;;;0.60;0.50;;;18.20;50.20;;;;;;6225844;28;20530;-71
2023/03/12 02:41:53;;;;;;;1.05;0.47;;;18.20;50.30;;;;;;6247767;28;20049;-71
2023/03/12 02:44:54;;;;;;;1.55;0.60;;;18.20;50.40;;;;;;6268852;28;20036;-71
2023/03/12 02:47:55;;;;;;;0.50;0.40;;;18.20;50.40;;;;;;6253866;28;20469;-71
2023/03/12 02:50:56;;;;;;;0.88;0.75;;;18.20;50.20;;;;;;6253994;28;20028;-71
2023/03/12 02:53:56;;;;;;;2.10;0.60;;;18.20;50.20;;;;;;6275566;28;20481;-70
2023/03/12 02:56:57;;;;;;;0.95;0.52;;;18.20;50.20;;;;;;6291954;28;20482;-71
2023/03/12 02:59:58;;;;;;;0.50;0.40;;;18.20;50.20;;;;;;6253645;28;20039;-71
2023/03/12 03:02:59;;;;;;;0.70;0.30;;;18.20;50.20;;;;;;6253699;28;20029;-71
2023/03/12 03:06:00;;;;;;;0.95;0.50;;;18.20;50.40;;;;;;6253402;28;20437;-71
2023/03/12 03:09:02;;;;;;;0.85;0.52;;;18.20;50.30;;;;;;6253463;28;20025;-71
2023/03/12 03:12:04;;;;;;;0.85;0.40;;;18.20;50.10;;;;;;6256355;28;20013;-71
2023/03/12 03:15:06;;;;;;;0.55;0.30;;;18.20;50.00;;;;;;6277413;28;20115;-71
2023/03/12 03:18:08;;;;;;;0.60;0.30;;;18.20;50.20;;;;;;6278083;28;20112;-71
2023/03/12 03:21:15;;;;;;;0.43;0.40;;;18.20;50.30;;;;;;6295739;28;20385;-71
2023/03/12 03:24:16;;;;;;;0.73;0.40;;;18.20;50.20;;;;;;6277570;28;20546;-71
2023/03/12 03:27:19;;;;;;;0.60;0.40;;;18.20;50.20;;;;;;6295940;28;20048;-71
2023/03/12 03:30:21;;;;;;;0.40;0.40;;;18.20;50.30;;;;;;6277784;28;20441;-71
2023/03/12 03:33:21;;;;;;;0.47;0.40;;;18.20;50.10;;;;;;6284228;28;20317;-72
2023/03/12 03:36:22;;;;;;;0.70;0.50;;;18.20;50.40;;;;;;6295562;28;20029;-71
2023/03/12 03:39:24;;;;;;;0.30;0.30;;;18.20;50.20;;;;;;6276145;28;20512;-71
2023/03/12 03:42:24;;;;;;;0.45;0.40;;;18.20;50.30;;;;;;6252558;28;20729;-71
2023/03/12 03:45:25;;;;;;;0.85;0.45;;;18.20;50.30;;;;;;6270566;28;20063;-71
2023/03/12 03:48:26;;;;;;;0.60;0.43;;;18.20;50.30;;;;;;6270780;28;20029;-71
2023/03/12 03:51:27;;;;;;;0.73;0.30;;;18.20;50.30;;;;;;6270160;28;20021;-71
2023/03/12 03:54:29;;;;;;;0.75;0.40;;;18.20;50.30;;;;;;6252382;28;20060;-71
2023/03/12 03:57:31;;;;;;;0.50;0.50;;;18.20;50.30;;;;;;6252949;28;20057;-71
2023/03/12 04:00:32;;;;;;;0.65;0.52;;;18.20;50.40;;;;;;6270297;28;20024;-71
2023/03/12 04:03:34;;;;;;;0.80;0.50;;;18.20;50.10;;;;;;6260601;28;20069;-71
2023/03/12 04:06:35;;;;;;;0.55;0.40;;;18.20;50.30;;;;;;6277312;28;20052;-71
2023/03/12 04:09:36;;;;;;;0.65;0.43;;;18.20;50.10;;;;;;6276773;28;20405;-71
2023/03/12 04:12:37;;;;;;;0.52;0.32;;;18.20;50.20;;;;;;6294293;28;20047;-72
2023/03/12 04:15:37;;;;;;;0.55;0.50;;;18.20;50.40;;;;;;6251903;28;20021;-71
2023/03/12 04:18:39;;;;;;;0.88;0.57;;;18.20;50.30;;;;;;6253321;28;20533;-71
2023/03/12 04:21:40;;;;;;;0.35;0.35;;;18.20;50.20;;;;;;6252202;28;20508;-71
2023/03/12 04:24:41;;;;;;;0.45;0.40;;;18.20;50.40;;;;;;6268277;28;20132;-68
2023/03/12 04:27:41;;;;;;;0.80;0.45;;;18.20;50.40;;;;;;6277174;28;20032;-69
2023/03/12 04:30:42;;;;;;;0.50;0.40;;;18.20;50.40;;;;;;6296238;28;20024;-67
2023/03/12 04:33:42;;;;;;;0.57;0.50;;;18.20;50.20;;;;;;6291896;28;20031;-68
2023/03/12 04:36:44;;;;;;;0.30;0.30;;;18.20;50.20;;;;;;6294911;28;20029;-68
2023/03/12 04:39:45;;;;;;;0.40;0.40;;;18.20;50.30;;;;;;6256176;28;20029;-70
2023/03/12 04:42:46;;;;;;;0.40;0.38;;;18.20;50.20;;;;;;6246670;28;20083;-70
2023/03/12 04:45:48;;;;;;;0.52;0.32;;;18.20;50.40;;;;;;6245857;28;20049;-69
2023/03/12 04:48:48;;;;;;;0.50;0.50;;;18.20;50.30;;;;;;6228049;28;20371;-69
2023/03/12 04:51:49;;;;;;;0.93;0.50;;;18.20;50.30;;;;;;6227859;28;20021;-70
2023/03/12 04:54:50;;;;;;;0.88;0.50;;;18.20;50.40;;;;;;6245621;28;20033;-69
2023/03/12 04:57:50;;;;;;;0.63;0.35;;;18.20;50.30;;;;;;6245549;28;20022;-69
2023/03/12 05:00:51;;;;;;;0.82;0.43;;;18.20;50.20;;;;;;6245259;28;20514;-69
2023/03/12 05:03:53;;;;;;;0.85;0.50;;;18.20;50.10;;;;;;6245205;28;20037;-70
2023/03/12 05:06:54;;;;;;;0.70;0.45;;;18.20;50.30;;;;;;6226981;28;20032;-69
2023/03/12 05:09:54;;;;;;;1.10;0.50;;;18.20;50.40;;;;;;6227505;28;20029;-70
2023/03/12 05:12:55;;;;;;;0.38;0.38;;;18.20;50.30;;;;;;6243526;28;20028;-70
2023/03/12 05:15:56;;;;;;;0.52;0.50;;;18.20;50.40;;;;;;6245206;28;20057;-69
2023/03/12 05:18:56;;;;;;;0.70;0.50;;;18.10;50.10;;;;;;6245089;28;20025;-70
2023/03/12 05:21:57;;;;;;;1.60;0.45;;;18.10;50.10;;;;;;6243782;28;20031;-69
2023/03/12 05:24:58;;;;;;;0.38;0.30;;;18.20;50.00;;;;;;6251356;28;20521;-69
2023/03/12 05:27:58;;;;;;;2.63;0.50;;;18.20;50.30;;;;;;6269873;28;20022;-70
2023/03/12 05:31:00;;;;;;;0.25;0.25;;;18.20;50.20;;;;;;6251815;28;20025;-70
2023/03/12 05:34:02;;;;;;;0.80;0.70;;;18.20;51.00;;;;;;6251842;28;20108;-69
2023/03/12 05:37:03;;;;;;;1.00;0.52;;;18.20;50.30;;;;;;6251735;28;20453;-70
2023/03/12 05:40:06;;;;;;;0.95;0.40;;;18.20;50.00;;;;;;6251695;28;20031;-70
2023/03/12 05:43:07;;;;;;;0.55;0.47;;;18.20;50.10;;;;;;6251589;28;20028;-69
2023/03/12 05:46:08;;;;;;;1.35;0.50;;;18.20;50.20;;;;;;6268130;28;20103;-70
2023/03/12 05:49:11;;;;;;;1.40;0.60;;;18.20;50.20;;;;;;6251781;28;20044;-70
2023/03/12 05:52:12;;;;;;;0.73;0.47;;;18.20;50.30;;;;;;6269639;28;20385;-69
2023/03/12 05:55:12;;;;;;;0.55;0.50;;;18.20;50.30;;;;;;6269397;28;20028;-69
2023/03/12 05:58:13;;;;;;;0.63;0.43;;;18.20;50.20;;;;;;6269099;28;20386;-69
2023/03/12 06:01:18;;;;;;;1.35;0.68;;;18.20;50.20;;;;;;6268948;28;20032;-69
2023/03/12 06:04:19;;;;;;;1.13;0.40;;;18.20;50.20;;;;;;6251500;28;20028;-70
2023/03/12 06:07:19;;;;;;;0.90;0.40;;;18.10;50.20;;;;;;6269067;28;20382;-69
2023/03/12 06:10:20;;;;;;;1.42;0.40;;;18.20;50.20;;;;;;6268948;28;20025;-70
2023/03/12 06:13:22;;;;;;;1.05;0.57;;;18.20;50.20;;;;;;6269129;28;20482;-70
2023/03/12 06:16:25;;;;;;;0.63;0.38;;;18.20;50.20;;;;;;6251199;28;20033;-69
2023/03/12 06:19:26;;;;;;;0.50;0.38;;;18.20;50.30;;;;;;6269863;28;20120;-70
2023/03/12 06:22:28;;;;;;;0.40;0.40;;;18.10;50.10;;;;;;6273793;28;20028;-70
2023/03/12 06:25:29;;;;;;;0.70;0.50;;;18.10;50.20;;;;;;6273702;28;20089;-70
2023/03/12 06:28:30;;;;;;;0.50;0.40;;;18.20;50.20;;;;;;6273417;28;20021;-70
2023/03/12 06:31:30;;;;;;;0.95;0.57;;;18.20;50.30;;;;;;6273752;28;20025;-70
2023/03/12 06:34:31;;;;;;;1.05;0.60;;;18.10;50.10;;;;;;6255894;28;20031;-70
2023/03/12 06:37:32;;;;;;;0.75;0.47;;;18.10;50.20;;;;;;6273711;28;20041;-70
2023/03/12 06:40:33;;;;;;;1.27;0.65;;;18.10;50.20;;;;;;6255609;28;20024;-70
2023/03/12 06:43:36;;;;;;;1.33;0.50;;;18.20;50.20;;;;;;6273496;28;20409;-70
2023/03/12 06:46:38;;;;;;;0.73;0.52;;;18.10;49.90;;;;;;6273268;28;20025;-70
2023/03/12 06:49:39;;;;;;;0.30;0.30;;;18.10;50.20;;;;;;6255736;28;20029;-69
2023/03/12 06:52:39;;;;;;;0.28;0.22;;;18.10;50.20;;;;;;6273371;28;20028;-70
2023/03/12 06:55:41;;;;;;;1.85;0.43;;;18.10;50.10;;;;;;6277672;28;20382;-69
2023/03/12 06:58:42;;;;;;;0.65;0.50;;;18.10;50.20;;;;;;6298135;28;20035;-68
2023/03/12 07:01:43;;;;;;;0.60;0.35;;;18.10;50.10;;;;;;6297813;28;20028;-69
2023/03/12 07:04:45;;;;;;;0.40;0.20;;;18.10;50.10;;;;;;6280129;28;20032;-69
2023/03/12 07:07:46;;;;;;;1.15;0.32;;;18.10;50.20;;;;;;6296076;28;20017;-69
2023/03/12 07:10:47;;;;;;;0.40;0.38;;;18.10;50.20;;;;;;6279581;28;20021;-69
2023/03/12 07:13:48;;;;;;;0.47;0.32;;;18.10;50.10;;;;;;6279754;28;20024;-68
2023/03/12 07:16:49;;;;;;;0.63;0.47;;;18.10;50.00;;;;;;6296890;28;20644;-68
2023/03/12 07:19:51;;;;;;;0.50;0.35;;;18.10;50.20;;;;;;6290899;28;20465;-68
2023/03/12 07:22:52;;;;;;;1.25;0.57;;;18.10;49.90;;;;;;6278805;28;20024;-69
2023/03/12 07:25:53;;;;;;;0.75;0.50;;;18.10;50.00;;;;;;6291385;28;20040;-68
2023/03/12 07:28:54;;;;;;;0.40;0.40;;;18.10;50.20;;;;;;6296821;28;20098;-69
2023/03/12 07:31:55;;;;;;;0.50;0.50;;;18.10;50.10;;;;;;6296923;28;20016;-69
2023/03/12 07:34:57;;;;;;;0.75;0.40;;;18.10;50.20;;;;;;6278572;28;20020;-69
2023/03/12 07:37:59;;;;;;;0.60;0.40;;;18.10;50.20;;;;;;6279202;28;20115;-69
2023/03/12 07:41:00;;;;;;;0.80;0.40;;;18.10;50.20;;;;;;6296623;28;20104;-72
2023/03/12 07:44:01;;;;;;;0.73;0.32;;;18.10;50.20;;;;;;6280714;28;20481;-69
2023/03/12 07:47:01;;;;;;;0.55;0.40;;;18.10;50.10;;;;;;6297422;28;20138;-71
2023/03/12 07:50:02;;;;;;;0.50;0.40;;;18.10;50.20;;;;;;6296446;28;20106;-69
2023/03/12 07:53:04;;;;;;;0.60;0.30;;;18.10;50.00;;;;;;6296478;28;20085;-69
2023/03/12 07:56:06;;;;;;;2.13;0.50;;;18.10;50.20;;;;;;6294919;28;20071;-69
2023/03/12 07:59:06;;;;;;;0.40;0.40;;;18.10;50.20;;;;;;6296114;28;20076;-69
2023/03/12 08:02:09;;;;;;;1.27;0.70;;;18.10;50.20;;;;;;6277998;28;20033;-70
2023/03/12 08:05:10;;;;;;;0.40;0.40;;;18.10;49.80;;;;;;6278111;28;20034;-69
2023/03/12 08:08:10;;;;;;;0.50;0.30;;;18.10;50.20;;;;;;6295841;28;20096;-69
2023/03/12 08:11:11;;;;;;;0.70;0.45;;;18.10;50.20;;;;;;6295917;28;20664;-69
2023/03/12 08:14:12;;;;;;;0.77;0.60;;;18.10;50.10;;;;;;6277996;28;20051;-69
2023/03/12 08:17:12;;;;;;;0.98;0.50;;;18.10;50.20;;;;;;6295874;28;20358;-69
2023/03/12 08:20:13;;;;;;;0.50;0.40;;;18.10;50.20;;;;;;6295489;28;20020;-69
2023/03/12 08:23:14;;;;;;;0.85;0.47;;;18.10;50.20;;;;;;6295882;28;20101;-69
2023/03/12 08:26:14;;;;;;;0.45;0.40;;;18.10;50.10;;;;;;6277244;28;20131;-69
2023/03/12 08:29:16;;;;;;;0.77;0.40;;;18.10;50.00;;;;;;6286491;28;20111;-69
2023/03/12 08:32:17;;;;;;;0.38;0.30;;;18.10;50.20;;;;;;6295289;28;20020;-69
2023/03/12 08:35:17;;;;;;;1.02;0.40;;;18.10;50.20;;;;;;6295250;28;20500;-69
2023/03/12 08:38:18;;;;;;;0.82;0.50;;;18.10;50.00;;;;;;6295407;28;20657;-69
2023/03/12 08:41:20;;;;;;;0.30;0.30;;;18.10;50.20;;;;;;6295364;28;20507;-69
2023/03/12 08:44:22;;;;;;;0.73;0.40;;;18.10;50.20;;;;;;6294581;28;20127;-69
2023/03/12 08:47:24;;;;;;;0.55;0.40;;;18.10;50.10;;;;;;6295407;28;20046;-69
2023/03/12 08:50:28;;;;;;;1.17;0.50;;;18.10;50.20;;;;;;6276918;28;20107;-69
2023/03/12 08:53:29;;;;;;;0.93;0.30;;;18.10;50.20;;;;;;6294960;28;20425;-69
2023/03/12 08:56:31;;;;;;;2.10;0.47;;;18.10;50.10;;;;;;6277097;28;20496;-69
2023/03/12 08:59:31;;;;;;;0.85;0.40;;;18.10;49.90;;;;;;6294804;28;20029;-70
2023/03/12 09:02:32;;;;;;;1.23;0.40;;;18.10;50.00;;;;;;6294695;28;20025;-69
2023/03/12 09:05:33;;;;;;;0.63;0.50;;;18.10;49.90;;;;;;6295004;28;20025;-69
2023/03/12 09:08:33;;;;;;;0.68;0.40;;;18.10;50.10;;;;;;6294729;28;20020;-69
2023/03/12 09:11:38;;;;;;;0.73;0.40;;;18.10;49.80;;;;;;6294402;28;20612;-69
2023/03/12 09:14:39;;;;;;;1.27;0.47;;;18.10;50.10;;;;;;6294630;28;20020;-69
2023/03/12 09:17:40;;;;;;;1.50;0.40;;;18.10;50.20;;;;;;6294732;28;20043;-68
2023/03/12 09:20:42;;;;;;;0.55;0.50;;;18.10;50.20;;;;;;6294493;28;20017;-68
2023/03/12 09:23:42;;;;;;;0.80;0.50;;;18.10;50.10;;;;;;6294645;28;20469;-69
2023/03/12 09:26:43;;;;;;;1.65;0.40;;;18.10;50.10;;;;;;6294405;28;20040;-69
2023/03/12 09:29:44;;;;;;;0.50;0.50;;;18.10;49.90;;;;;;6276477;28;20024;-69
2023/03/12 09:32:45;;;;;;;0.40;0.30;;;18.20;50.20;;;;;;6294264;28;20385;-69
2023/03/12 09:35:56;;;;;;;0.50;0.40;;;18.10;49.90;;;;;;6276391;28;20397;-69
2023/03/12 09:38:56;;;;;;;0.50;0.43;;;18.10;50.10;;;;;;6276754;28;20052;-69
2023/03/12 09:41:57;;;;;;;0.40;0.30;;;18.20;50.20;;;;;;6294535;28;20035;-69
2023/03/12 09:45:00;;;;;;;0.73;0.40;;;18.20;50.20;;;;;;6276291;28;20556;-69
2023/03/12 09:48:05;;;;;;;0.65;0.40;;;18.10;50.10;;;;;;6275969;28;20020;-69
2023/03/12 09:51:31;;;;;;;0.20;0.20;;;18.10;50.10;;;;;;6276266;28;20078;-69
2023/03/12 09:54:40;;;;;;;0.20;0.20;;;18.20;50.20;;;;;;6297431;28;20044;-69
2023/03/12 09:57:45;;;;;;;1.17;0.38;;;18.20;50.10;;;;;;6280967;28;20451;-69
2023/03/12 10:00:45;;;;;;;0.30;0.30;;;18.20;50.20;;;;;;6299178;28;20025;-69
2023/03/12 10:04:08;;;;;;;0.70;0.40;;;18.20;50.10;;;;;;6298800;28;20047;-69
2023/03/12 10:07:20;;;;;;;0.73;0.40;;;18.20;50.10;;;;;;6298875;28;20029;-69
2023/03/12 10:10:27;;;;;;;0.30;0.30;;;18.20;50.30;;;;;;6298931;28;20060;-69
2023/03/12 10:13:52;;;;;;;0.98;0.30;;;18.20;50.30;;;;;;6298708;28;20461;-69
2023/03/12 10:16:53;;;;;;;;;;;18.20;50.30;;;;;;6280987;28;20079;-69
2023/03/12 10:20:13;;;;;;;0.30;0.20;;;18.20;50.20;;;;;;6298837;28;20319;-70
2023/03/12 10:23:39;;;;;;;0.88;0.35;;;18.20;50.30;;;;;;6293456;28;20103;-69
2023/03/12 10:26:44;;;;;;;1.80;0.43;;;18.20;50.30;;;;;;6316057;28;20130;-69
2023/03/12 10:29:51;;;;;;;0.60;0.43;;;18.20;50.30;;;;;;6323895;28;20425;-69
2023/03/12 10:33:03;;;;;;;0.55;0.40;;;18.20;50.30;;;;;;6323524;28;20028;-69
2023/03/12 10:36:44;;;;;;;0.77;0.40;;;18.20;50.40;;;;;;6302261;28;20029;-69
2023/03/12 10:43:42;;;;;;;0.47;0.20;;;18.20;50.30;;;;;;6291845;28;20032;-70
2023/03/12 10:46:55;;;;;;;1.15;0.52;;;18.20;50.30;;;;;;6295549;28;20645;-69
2023/03/12 10:50:16;;;;;;;0.57;0.43;;;18.20;50.30;;;;;;6308744;28;20103;-69
2023/03/12 10:53:27;;;;;;;0.70;0.40;;;18.20;50.40;;;;;;6253682;28;20021;-70
2023/03/12 10:56:47;;;;;;;0.30;0.30;;;18.20;50.40;;;;;;6256896;28;20552;-69
2023/03/12 11:00:33;;;;;;;0.60;0.45;;;18.20;50.50;;;;;;6302351;28;20507;-70
2023/03/12 11:03:50;;;;;;;0.45;0.30;;;18.20;50.50;;;;;;6297857;28;20032;-69
2023/03/12 11:07:14;;;;;;;0.55;0.30;;;18.20;50.50;;;;;;6319960;28;20103;-69
2023/03/12 11:10:55;;;;;;;0.45;0.40;;;18.20;50.50;;;;;;6320741;28;20099;-70
2023/03/12 11:14:28;;;;;;;0.22;0.22;;;18.20;50.50;;;;;;6284807;28;20056;-69
2023/03/12 11:17:29;;;;;;;0.32;0.30;;;18.20;50.60;;;;;;6284194;28;20040;-69
2023/03/12 11:20:29;;;;;;;0.40;0.30;;;18.20;50.50;;;;;;6320643;28;20039;-69
2023/03/12 11:23:34;;;;;;;1.25;0.30;;;18.20;50.60;;;;;;6285864;28;20076;-69
2023/03/12 12:40:53;;;;;;;0.20;0.20;;;18.20;50.70;;;;;;6275091;28;20041;-69
2023/03/12 12:43:56;;;;;;;0.70;0.40;;;18.20;50.70;;;;;;6234888;28;20280;-70
2023/03/12 12:47:04;;;;;;;0.30;0.30;;;18.20;50.70;;;;;;6269488;28;20024;-70
2023/03/12 12:50:11;;;;;;;0.40;0.28;;;18.20;50.70;;;;;;6268039;28;20442;-69
2023/03/12 12:53:26;;;;;;;0.55;0.40;;;18.20;50.80;;;;;;6269699;28;20029;-71
2023/03/12 12:56:33;;;;;;;0.40;0.30;;;18.20;50.80;;;;;;6268076;28;20055;-70
2023/03/12 12:59:37;;;;;;;0.30;0.20;;;18.20;50.80;;;;;;6269453;28;20064;-70
2023/03/12 13:02:41;;;;;;;1.05;0.40;;;18.20;50.80;;;;;;6275624;28;20082;-70
2023/03/12 13:05:58;;;;;;;0.40;0.30;;;18.20;50.80;;;;;;6275844;28;20025;-69
2023/03/12 13:09:11;;;;;;;1.08;0.30;;;18.20;50.70;;;;;;6294044;28;20029;-70
2023/03/12 13:12:18;;;;;;;0.47;0.40;;;18.20;50.70;;;;;;6275619;28;20680;-70
2023/03/12 13:15:48;;;;;;;0.40;0.30;;;18.20;50.80;;;;;;6315661;28;20032;-70
2023/03/12 13:19:19;;;;;;;0.40;0.30;;;18.20;50.80;;;;;;6286793;28;20062;-72
2023/03/12 13:22:46;;;;;;;0.63;0.30;;;18.20;50.80;;;;;;6279475;28;20462;-71
2023/03/12 13:26:03;;;;;;;1.85;0.45;;;18.20;50.80;;;;;;6271949;28;20029;-71
2023/03/12 13:29:27;;;;;;;0.30;0.30;;;18.20;50.80;;;;;;6284734;28;20051;-71
2023/03/12 13:32:34;;;;;;;1.58;0.40;;;18.20;50.90;;;;;;6317179;28;20016;-71
2023/03/12 13:35:39;;;;;;;0.25;0.20;;;18.20;50.80;;;;;;6277476;28;20027;-71
2023/03/12 13:38:53;;;;;;;0.30;0.30;;;18.20;50.80;;;;;;6249682;28;20048;-71
2023/03/12 13:41:55;;;;;;;0.65;0.30;;;18.20;50.80;;;;;;6266827;28;20048;-71
2023/03/12 13:45:39;;;;;;;0.55;0.30;;;18.20;50.80;;;;;;6287834;28;20125;-71
2023/03/12 13:48:47;;;;;;;0.38;0.30;;;18.20;50.80;;;;;;6185118;28;20558;-71
2023/03/12 13:52:06;;;;;;;0.47;0.30;;;18.20;50.80;;;;;;6296665;28;20438;-71
2023/03/12 13:55:19;;;;;;;2.30;0.35;;;18.20;50.90;;;;;;6291708;28;20030;-71
2023/03/12 13:58:22;;;;;;;1.17;0.20;;;18.20;51.50;;;;;;6298493;28;20046;-71
2023/03/12 14:01:35;;;;;;;0.68;0.30;;;18.20;50.80;;;;;;6316557;28;20035;-71
2023/03/12 14:04:41;;;;;;;0.40;0.30;;;18.20;50.80;;;;;;6304090;28;20039;-71
2023/03/12 14:07:53;;;;;;;0.20;0.20;;;18.30;50.90;;;;;;6279228;28;20269;-70
2023/03/12 14:10:56;;;;;;;1.42;0.40;;;18.20;50.90;;;;;;6295595;28;20119;-71
2023/03/12 14:14:20;;;;;;;0.15;0.15;;;18.20;50.90;;;;;;6310642;28;20062;-71
2023/03/12 14:17:24;;;;;;;4.13;0.40;;;18.20;50.90;;;;;;6294279;28;20055;-70
2023/03/12 14:20:25;;;;;;;0.70;0.40;;;18.20;50.90;;;;;;6275191;28;20025;-70
2023/03/12 14:23:39;;;;;;;0.68;0.22;;;18.20;50.90;;;;;;6290398;28;20024;-70
2023/03/12 14:26:40;;;;;;;0.50;0.30;;;18.20;50.90;;;;;;6301136;28;20077;-71
2023/03/12 14:29:52;;;;;;;0.90;0.40;;;18.20;50.90;;;;;;6316195;28;20545;-70
2023/03/12 14:32:56;;;;;;;0.38;0.35;;;18.30;50.90;;;;;;6298211;28;20028;-71
2023/03/12 14:36:09;;;;;;;0.47;0.38;;;18.30;51.00;;;;;;6311161;28;20058;-71
2023/03/12 14:39:23;;;;;;;0.52;0.30;;;18.30;50.90;;;;;;6286285;28;20040;-70
2023/03/12 14:42:32;;;;;;;1.43;0.30;;;18.30;50.90;;;;;;6296710;28;20132;-71
2023/03/12 14:45:39;;;;;;;0.60;0.32;;;18.30;50.90;;;;;;6296407;28;20029;-70
2023/03/12 14:48:39;;;;;;;0.50;0.30;;;18.30;50.90;;;;;;6296087;28;20042;-71
2023/03/12 14:51:43;;;;;;;1.05;0.32;;;18.30;50.90;;;;;;6290692;28;20424;-71
2023/03/12 14:55:17;;;;;;;0.70;0.32;;;18.30;50.90;;;;;;6283319;28;20537;-71
2023/03/12 14:58:19;;;;;;;0.35;0.28;;;18.30;50.90;;;;;;6306175;28;20035;-71
2023/03/12 15:01:31;;;;;;;1.02;0.40;;;18.30;50.90;;;;;;6319780;28;20021;-70
2023/03/12 15:04:34;;;;;;;0.80;0.38;;;18.30;50.90;;;;;;6319011;28;20020;-71
2023/03/12 15:07:38;;;;;;;0.75;0.43;;;18.30;51.00;;;;;;6277659;28;20032;-71
2023/03/12 15:10:39;;;;;;;1.23;0.40;;;18.20;50.80;;;;;;6294746;28;20052;-71
2023/03/12 15:13:40;;;;;;;0.55;0.40;;;18.30;50.90;;;;;;6295224;28;20074;-71
2023/03/12 15:16:42;;;;;;;0.50;0.40;;;18.30;50.90;;;;;;6295354;28;20156;-71
2023/03/12 15:19:44;;;;;;;1.70;0.40;;;18.20;50.90;;;;;;6297035;28;20111;-71
2023/03/12 15:22:45;;;;;;;0.57;0.47;;;18.30;50.90;;;;;;6315567;28;20591;-71
2023/03/12 15:25:46;;;;;;;0.38;0.30;;;18.30;50.90;;;;;;6319611;28;20126;-71
2023/03/12 15:29:00;;;;;;;0.85;0.30;;;18.30;50.90;;;;;;6320253;28;20016;-71
2023/03/12 15:32:02;;;;;;;0.40;0.30;;;18.30;50.90;;;;;;6307308;28;20078;-71
2023/03/12 15:35:12;;;;;;;0.73;0.57;;;18.30;50.90;;;;;;6292367;28;20032;-71
2023/03/12 15:38:15;;;;;;;0.82;0.40;;;18.30;50.90;;;;;;6315426;28;20034;-71
2023/03/12 15:41:25;;;;;;;1.38;0.45;;;18.30;50.90;;;;;;6280320;28;20029;-71
2023/03/12 15:44:29;;;;;;;0.65;0.30;;;18.30;50.90;;;;;;6288809;28;20948;-71
2023/03/12 15:47:32;;;;;;;0.60;0.30;;;18.30;50.90;;;;;;6274261;28;20043;-71
2023/03/12 15:50:39;;;;;;;0.98;0.35;;;18.30;50.90;;;;;;6276240;28;20082;-71
2023/03/12 15:53:40;;;;;;;0.30;0.30;;;18.30;50.90;;;;;;6294760;28;20434;-71
2023/03/12 15:56:40;;;;;;;0.22;0.22;;;18.30;50.90;;;;;;6297234;28;20110;-72
2023/03/12 15:59:41;;;;;;;1.05;0.50;;;18.30;50.90;;;;;;6295507;28;20020;-71
2023/03/12 16:03:04;;;;;;;0.30;0.30;;;18.30;50.90;;;;;;6269602;28;20063;-71
2023/03/12 16:06:14;;;;;;;0.30;0.20;;;18.30;50.90;;;;;;6282345;28;20043;-71
2023/03/12 16:09:23;;;;;;;1.83;0.55;;;18.30;50.90;;;;;;6319611;28;20051;-71
2023/03/12 16:12:24;;;;;;;1.05;0.40;;;18.30;50.90;;;;;;6299706;28;20032;-72
2023/03/12 16:15:35;;;;;;;0.60;0.30;;;18.30;50.90;;;;;;6290062;28;20149;-71
2023/03/12 16:18:36;;;;;;;0.20;0.20;;;18.30;50.90;;;;;;6319223;28;20024;-71
2023/03/12 16:21:36;;;;;;;1.08;0.40;;;18.30;50.90;;;;;;6318453;28;20028;-71
2023/03/12 16:24:37;;;;;;;1.63;0.30;;;18.30;50.90;;;;;;6298060;28;20024;-71
2023/03/12 16:27:45;;;;;;;0.40;0.30;;;18.30;50.90;;;;;;6310378;28;20031;-71
2023/03/12 16:30:46;;;;;;;0.50;0.30;;;18.30;50.90;;;;;;6293598;28;20078;-71
2023/03/12 16:33:47;;;;;;;0.40;0.30;;;18.30;50.90;;;;;;6291236;28;20020;-71
2023/03/12 16:36:48;;;;;;;0.70;0.40;;;18.30;50.90;;;;;;6297193;28;20050;-71
2023/03/12 16:39:49;;;;;;;0.25;0.25;;;18.30;50.90;;;;;;6302716;28;20041;-70
2023/03/12 16:42:53;;;;;;;3.67;0.40;;;18.30;50.90;;;;;;6266855;28;20108;-71
2023/03/12 16:45:55;;;;;;;0.73;0.38;;;18.30;50.90;;;;;;6252117;28;20041;-71
2023/03/12 16:48:56;;;;;;;0.40;0.30;;;18.30;50.90;;;;;;6295464;28;20024;-71
2023/03/12 16:51:58;;;;;;;5.53;0.88;;;18.30;50.90;;;;;;6299695;28;20028;-71
2023/03/12 16:54:58;;;;;;;5.13;0.52;;;18.30;50.90;;;;;;6305062;28;20428;-71
2023/03/12 16:58:00;;;;;;;1.33;0.63;;;18.30;50.90;;;;;;6291928;28;20036;-71
2023/03/12 17:01:02;;;;;;;2.70;0.50;;;18.30;50.90;;;;;;6305984;28;20373;-69
2023/03/12 17:04:03;;;;;;;0.70;0.40;;;18.30;50.90;;;;;;6318466;28;20022;-71
2023/03/12 17:07:04;;;;;;;0.80;0.38;;;18.30;50.90;;;;;;6311590;28;20024;-73
2023/03/12 17:10:06;;;;;;;3.45;0.45;;;18.30;50.90;;;;;;6275797;28;20149;-71
2023/03/12 17:13:20;;;;;;;3.63;0.75;;;18.30;50.90;;;;;;6276274;28;20025;-71
2023/03/12 17:16:21;;;;;;;2.50;0.50;;;18.30;50.90;;;;;;6295168;28;20032;-73
2023/03/12 17:19:22;;;;;;;4.22;0.40;;;18.30;51.00;;;;;;6308204;28;20553;-69